Terminal Aerodrome Forecast
Issued by NWS

Home | Current Version | Previous Version | Text Only | Print | Product List | Glossary On
Versions: 1 2 3 4 5 6 7 8 9 10 11 12 13
000
FTUS46 KMTR 241100
TAFSJC
TAF
KSJC 241125Z 2412/2512 14005KT P6SM SKC
     FM242100 24008KT P6SM BKN250
     FM250300 VRB03KT P6SM BKN150
     FM250900 14006KT P6SM SCT020 BKN150=

USA.gov is the U.S. government's official web portal to all federal, state and local government web resources and services.